createdAt,value
2023-03-06T00:02:36.908Z,100144.69
2023-03-06T00:06:38.199Z,100138.63
2023-03-06T00:10:40.396Z,100133.88
2023-03-06T00:14:41.756Z,100128.53
2023-03-06T00:18:44.011Z,100125.81
2023-03-06T00:22:45.909Z,100120.00
2023-03-06T00:26:47.252Z,100121.34
2023-03-06T00:30:48.562Z,100119.78
2023-03-06T00:34:51.383Z,100121.88
2023-03-06T00:38:52.713Z,100111.34
2023-03-06T00:42:54.016Z,100104.47
2023-03-06T00:46:55.339Z,100099.16
2023-03-06T00:50:56.621Z,100089.09
2023-03-06T00:54:57.895Z,100085.16
2023-03-06T00:58:59.200Z,100083.19
2023-03-06T01:03:00.547Z,100076.00
2023-03-06T01:07:01.902Z,100074.66
2023-03-06T01:11:03.358Z,100069.34
2023-03-06T01:15:05.346Z,100074.81
2023-03-06T01:19:06.742Z,100067.78
2023-03-06T01:23:08.109Z,100058.13
2023-03-06T01:27:09.530Z,100056.75
2023-03-06T01:31:11.225Z,100050.03
2023-03-06T01:35:12.978Z,100050.25
2023-03-06T01:39:14.353Z,100043.38
2023-03-06T01:43:25.666Z,100036.91
2023-03-06T01:47:27.493Z,100042.63
2023-03-06T01:51:34.625Z,100030.41
2023-03-06T01:55:36.810Z,100022.66
2023-03-06T01:59:42.211Z,100021.72
2023-03-06T02:03:44.156Z,100019.78
2023-03-06T02:07:46.709Z,100010.66
2023-03-06T02:11:48.082Z,100009.91
2023-03-06T02:15:49.480Z,100006.53
2023-03-06T02:20:12.087Z,99992.56
2023-03-06T02:24:40.703Z,100004.94
2023-03-06T02:28:42.389Z,99995.41
2023-03-06T02:32:43.743Z,99995.69
2023-03-06T02:36:55.491Z,99988.09
2023-03-06T02:40:58.062Z,99993.53
2023-03-06T02:45:01.765Z,99983.63
2023-03-06T02:49:03.094Z,99971.97
2023-03-06T02:53:05.850Z,99970.47
2023-03-06T02:57:07.188Z,99964.97
2023-03-06T03:01:08.771Z,99964.72
2023-03-06T03:05:10.148Z,99961.72
2023-03-06T03:09:11.594Z,99960.38
2023-03-06T03:13:13.174Z,99959.88
2023-03-06T03:17:15.105Z,99958.72
2023-03-06T03:21:17.195Z,99958.59
2023-03-06T03:25:19.976Z,99954.59
2023-03-06T03:29:21.301Z,99947.81
2023-03-06T03:33:22.623Z,99951.38
2023-03-06T03:37:24.032Z,99952.44
2023-03-06T03:41:25.641Z,99946.13
2023-03-06T03:45:27.148Z,99947.34
2023-03-06T03:49:28.488Z,99946.03
2023-03-06T03:53:29.790Z,99943.81
2023-03-06T03:57:31.161Z,99944.06
2023-03-06T04:01:32.705Z,99926.44
2023-03-06T04:05:34.131Z,99922.63
2023-03-06T04:09:35.549Z,99925.22
2023-03-06T04:13:36.888Z,99915.31
2023-03-06T04:17:38.172Z,99920.06
2023-03-06T04:21:39.549Z,99899.31
2023-03-06T04:25:41.193Z,99901.22
2023-03-06T04:29:42.568Z,99904.31
2023-03-06T04:33:43.848Z,99884.91
2023-03-06T04:37:45.194Z,99881.75
2023-03-06T04:41:46.509Z,99868.13
2023-03-06T04:45:48.081Z,99868.72
2023-03-06T04:49:49.405Z,99863.91
2023-03-06T04:53:50.722Z,99867.13
2023-03-06T04:57:52.148Z,99852.72
2023-03-06T05:01:54.250Z,99862.91
2023-03-06T05:05:55.700Z,99858.19
2023-03-06T05:09:56.986Z,99859.03
2023-03-06T05:13:58.331Z,99860.75
2023-03-06T05:17:59.718Z,99858.69
2023-03-06T05:22:01.116Z,99853.63
2023-03-06T05:26:09.353Z,99855.91
2023-03-06T05:30:12.753Z,99852.53
2023-03-06T05:34:14.874Z,99864.56
2023-03-06T05:38:16.766Z,99870.97
2023-03-06T05:42:18.470Z,99870.31
2023-03-06T05:46:19.890Z,99868.72
2023-03-06T05:50:21.335Z,99862.16
2023-03-06T05:54:24.361Z,99865.50
2023-03-06T05:58:26.336Z,99865.72
2023-03-06T06:02:27.636Z,99863.47
2023-03-06T06:06:29.030Z,99866.19
2023-03-06T06:10:30.378Z,99857.66
2023-03-06T06:14:34.134Z,99866.19
2023-03-06T06:18:35.450Z,99865.72
2023-03-06T06:22:40.526Z,99864.25
2023-03-06T06:26:42.475Z,99857.72
2023-03-06T06:30:44.031Z,99859.72
2023-03-06T06:34:45.359Z,99858.97
2023-03-06T06:38:46.998Z,99856.22
2023-03-06T06:42:48.373Z,99857.22
2023-03-06T06:47:21.264Z,99852.56
2023-03-06T06:51:11.574Z,99852.88
2023-03-06T06:55:13.411Z,99855.72
2023-03-06T06:59:16.945Z,99862.69
2023-03-06T07:03:18.746Z,99862.72
2023-03-06T07:07:20.052Z,99863.38
2023-03-06T07:11:22.155Z,99872.88
2023-03-06T07:15:26.727Z,99863.88
2023-03-06T07:19:28.149Z,99869.03
2023-03-06T07:23:29.617Z,99872.44
2023-03-06T07:27:30.966Z,99868.22
2023-03-06T07:31:32.386Z,99872.56
2023-03-06T07:35:33.941Z,99876.53
2023-03-06T07:39:35.457Z,99876.53
2023-03-06T07:43:36.919Z,99865.94
2023-03-06T07:47:38.813Z,99867.31
2023-03-06T07:51:40.270Z,99860.91
2023-03-06T07:55:41.595Z,99874.38
2023-03-06T07:59:42.908Z,99864.47
2023-03-06T08:03:44.664Z,99879.03
2023-03-06T08:07:46.114Z,99872.53
2023-03-06T08:11:47.565Z,99873.38
2023-03-06T08:15:49.263Z,99876.72
2023-03-06T08:19:50.613Z,99863.34
2023-03-06T08:23:52.481Z,99870.16
2023-03-06T08:27:54.077Z,99864.53
2023-03-06T08:31:55.454Z,99864.69
2023-03-06T08:35:56.792Z,99871.34
2023-03-06T08:39:58.637Z,99871.63
2023-03-06T08:44:00.109Z,99866.09
2023-03-06T08:48:01.467Z,99872.16
2023-03-06T08:52:02.741Z,99865.84
2023-03-06T08:56:04.527Z,99866.25
2023-03-06T09:00:08.868Z,99865.63
2023-03-06T09:04:11.629Z,99872.97
2023-03-06T09:08:12.969Z,99867.00
2023-03-06T09:12:14.356Z,99868.69
2023-03-06T09:16:16.130Z,99870.72
2023-03-06T09:20:18.510Z,99871.53
2023-03-06T09:24:19.878Z,99863.72
2023-03-06T09:28:22.139Z,99863.56
2023-03-06T09:32:24.232Z,99870.19
2023-03-06T09:36:25.569Z,99865.94
2023-03-06T09:40:55.079Z,99860.63
2023-03-06T09:44:59.961Z,99866.03
2023-03-06T09:49:23.180Z,99869.59
2023-03-06T09:53:36.420Z,99871.50
2023-03-06T09:58:02.697Z,99862.53
2023-03-06T10:02:15.950Z,99870.09
2023-03-06T10:06:29.724Z,99861.28
2023-03-06T10:10:46.725Z,99853.59
2023-03-06T10:15:16.101Z,99857.94
2023-03-06T10:19:19.950Z,99852.88
2023-03-06T10:23:29.166Z,99843.31
2023-03-06T10:27:46.190Z,99849.22
2023-03-06T10:31:59.482Z,99846.41
2023-03-06T10:36:00.881Z,99856.34
2023-03-06T10:40:15.691Z,99844.69
2023-03-06T10:44:19.263Z,99858.28
2023-03-06T10:48:25.064Z,99857.72
2023-03-06T10:52:30.590Z,99850.72
2023-03-06T10:56:38.811Z,99849.25
2023-03-06T11:00:40.191Z,99853.47
2023-03-06T11:04:47.187Z,99852.53
2023-03-06T11:08:48.537Z,99854.19
2023-03-06T11:13:19.095Z,99844.28
2023-03-06T11:17:28.809Z,99863.47
2023-03-06T11:21:33.300Z,99853.78
2023-03-06T11:25:40.657Z,99853.78
2023-03-06T11:29:49.314Z,99857.13
2023-03-06T11:34:12.052Z,99860.44
2023-03-06T11:38:27.186Z,99855.19
2023-03-06T11:42:34.271Z,99848.25
2023-03-06T11:46:41.713Z,99847.09
2023-03-06T11:50:49.139Z,99844.03
2023-03-06T11:54:55.742Z,99846.00
2023-03-06T11:59:41.591Z,99845.75
2023-03-06T12:03:48.945Z,99846.81
2023-03-06T12:08:23.113Z,99842.44
2023-03-06T12:12:41.188Z,99832.59
2023-03-06T12:17:03.918Z,99825.59
2023-03-06T12:21:15.317Z,99824.28
2023-03-06T12:25:39.429Z,99821.03
2023-03-06T12:29:52.922Z,99821.53
2023-03-06T12:34:04.414Z,99825.78
2023-03-06T12:38:44.854Z,99810.75
2023-03-06T12:43:00.448Z,99806.09
2023-03-06T12:47:04.877Z,99810.56
2023-03-06T12:51:11.010Z,99812.38
2023-03-06T12:55:16.687Z,99809.75
2023-03-06T12:59:44.133Z,99803.25
2023-03-06T13:04:18.745Z,99795.78
2023-03-06T13:08:57.046Z,99799.50
2023-03-06T13:13:01.106Z,99796.91
2023-03-06T13:17:20.685Z,99787.91
2023-03-06T13:21:41.037Z,99787.38
2023-03-06T13:25:48.596Z,99781.94
2023-03-06T13:29:52.298Z,99786.03
2023-03-06T13:33:57.283Z,99782.25
2023-03-06T13:37:59.778Z,99772.63
2023-03-06T13:42:01.324Z,99783.03
2023-03-06T13:46:24.666Z,99781.19
2023-03-06T13:50:33.060Z,99776.25
2023-03-06T13:54:55.477Z,99779.00
2023-03-06T13:59:18.141Z,99775.84
2023-03-06T14:03:40.293Z,99782.00
2023-03-06T14:07:47.037Z,99777.69
2023-03-06T14:12:00.604Z,99772.06
2023-03-06T14:16:10.012Z,99764.28
2023-03-06T14:20:17.858Z,99764.41
2023-03-06T14:24:27.849Z,99757.91
2023-03-06T14:28:31.068Z,99760.16
2023-03-06T14:32:32.595Z,99751.53
2023-03-06T14:37:01.988Z,99747.72
2023-03-06T14:41:05.286Z,99751.94
2023-03-06T14:45:16.551Z,99750.28
2023-03-06T14:49:19.906Z,99749.38
2023-03-06T14:53:25.205Z,99745.41
2023-03-06T14:57:26.810Z,99744.38
2023-03-06T15:01:36.178Z,99742.09
2023-03-06T15:05:38.254Z,99742.34
2023-03-06T15:09:45.527Z,99737.72
2023-03-06T15:14:00.973Z,99739.38
2023-03-06T15:18:02.692Z,99735.91
2023-03-06T15:22:04.045Z,99726.34
2023-03-06T15:26:22.563Z,99726.25
2023-03-06T15:30:37.047Z,99724.78
2023-03-06T15:34:38.604Z,99727.03
2023-03-06T15:38:45.384Z,99728.75
2023-03-06T15:42:46.820Z,99721.66
2023-03-06T15:46:49.981Z,99718.44
2023-03-06T15:50:53.237Z,99715.50
2023-03-06T15:54:54.558Z,99714.22
2023-03-06T15:58:57.894Z,99714.94
2023-03-06T16:02:59.307Z,99714.06
2023-03-06T16:07:00.612Z,99708.19
2023-03-06T16:11:01.955Z,99703.69
2023-03-06T16:15:04.150Z,99698.44
2023-03-06T16:19:23.796Z,99693.44
2023-03-06T16:23:26.841Z,99688.00
2023-03-06T16:27:28.908Z,99685.81
2023-03-06T16:31:30.266Z,99680.91
2023-03-06T16:35:31.905Z,99680.63
2023-03-06T16:39:33.433Z,99672.22
2023-03-06T16:43:34.886Z,99671.75
2023-03-06T16:47:36.236Z,99672.81
2023-03-06T16:51:39.637Z,99675.44
2023-03-06T16:55:41.173Z,99668.72
2023-03-06T16:59:42.545Z,99667.56
2023-03-06T17:03:44.499Z,99662.81
2023-03-06T17:07:46.311Z,99668.63
2023-03-06T17:11:47.810Z,99661.69
2023-03-06T17:15:56.414Z,99659.66
2023-03-06T17:19:58.103Z,99658.69
2023-03-06T17:24:01.596Z,99666.47
2023-03-06T17:28:03.069Z,99649.03
2023-03-06T17:32:04.530Z,99649.88
2023-03-06T17:36:06.328Z,99650.84
2023-03-06T17:40:09.615Z,99646.16
2023-03-06T17:44:12.017Z,99648.97
2023-03-06T17:48:14.083Z,99651.75
2023-03-06T17:52:15.411Z,99648.00
2023-03-06T17:56:16.725Z,99641.88
2023-03-06T18:00:18.757Z,99645.91
2023-03-06T18:04:20.030Z,99636.69
2023-03-06T18:08:21.317Z,99642.44
2023-03-06T18:12:22.711Z,99635.22
2023-03-06T18:16:25.900Z,99642.56
2023-03-06T18:20:27.484Z,99639.81
2023-03-06T18:24:28.846Z,99636.22
2023-03-06T18:28:30.707Z,99638.69
2023-03-06T18:32:32.179Z,99642.25
2023-03-06T18:36:34.350Z,99633.63
2023-03-06T18:40:35.683Z,99620.13
2023-03-06T18:44:37.040Z,99628.44
2023-03-06T18:48:38.389Z,99618.25
2023-03-06T18:52:39.701Z,99623.16
2023-03-06T18:56:43.987Z,99623.94
2023-03-06T19:00:45.775Z,99616.53
2023-03-06T19:04:47.221Z,99617.63
2023-03-06T19:08:48.576Z,99600.75
2023-03-06T19:12:49.919Z,99606.72
2023-03-06T19:16:51.275Z,99593.56
2023-03-06T19:20:53.216Z,99589.97
2023-03-06T19:24:54.559Z,99582.56
2023-03-06T19:28:55.996Z,99584.28
2023-03-06T19:32:57.429Z,99568.41
2023-03-06T19:36:58.827Z,99578.13
2023-03-06T19:41:03.363Z,99567.56
2023-03-06T19:45:05.935Z,99567.28
2023-03-06T19:49:11.943Z,99560.59
2023-03-06T19:53:13.694Z,99565.81
2023-03-06T19:57:15.134Z,99554.44
2023-03-06T20:01:19.082Z,99557.13
2023-03-06T20:05:20.436Z,99547.22
2023-03-06T20:09:21.816Z,99542.78
2023-03-06T20:13:23.242Z,99537.91
2023-03-06T20:17:24.594Z,99529.22
2023-03-06T20:21:30.765Z,99523.31
2023-03-06T20:25:35.264Z,99518.69
2023-03-06T20:29:36.570Z,99516.03
2023-03-06T20:33:37.977Z,99505.94
2023-03-06T20:37:41.056Z,99517.84
2023-03-06T20:41:43.433Z,99518.66
2023-03-06T20:45:56.246Z,99510.03
2023-03-06T20:49:57.615Z,99517.25
2023-03-06T20:54:00.991Z,99516.91
2023-03-06T20:58:02.331Z,99515.38
2023-03-06T21:02:03.908Z,99507.97
2023-03-06T21:06:05.441Z,99501.56
2023-03-06T21:10:07.647Z,99489.84
2023-03-06T21:14:09.057Z,99483.28
2023-03-06T21:18:11.363Z,99477.66
2023-03-06T21:22:13.607Z,99475.88
2023-03-06T21:26:26.983Z,99470.63
2023-03-06T21:30:29.426Z,99461.22
2023-03-06T21:34:30.734Z,99453.00
2023-03-06T21:38:32.987Z,99455.63
2023-03-06T21:42:37.371Z,99436.81
2023-03-06T21:46:38.796Z,99433.44
2023-03-06T21:50:40.962Z,99433.59
2023-03-06T21:54:43.322Z,99430.81
2023-03-06T21:58:45.577Z,99428.75
2023-03-06T22:02:47.209Z,99424.91
2023-03-06T22:06:48.526Z,99410.19
2023-03-06T22:10:49.857Z,99409.88
2023-03-06T22:14:51.669Z,99399.78
2023-03-06T22:18:53.129Z,99395.28
2023-03-06T22:22:54.525Z,99391.84
2023-03-06T22:26:55.843Z,99386.66
2023-03-06T22:31:05.518Z,99379.28
2023-03-06T22:35:07.165Z,99380.28
2023-03-06T22:39:11.986Z,99366.97
2023-03-06T22:43:13.276Z,99351.84
2023-03-06T22:47:14.660Z,99354.25
2023-03-06T22:51:20.538Z,99356.59
2023-03-06T22:55:21.930Z,99350.06
2023-03-06T22:59:23.249Z,99334.66
2023-03-06T23:03:24.585Z,99346.53
2023-03-06T23:07:25.912Z,99329.25
2023-03-06T23:11:28.830Z,99334.44
2023-03-06T23:15:30.256Z,99327.13
2023-03-06T23:19:31.606Z,99324.28
2023-03-06T23:23:32.983Z,99319.47
2023-03-06T23:27:35.986Z,99319.97
2023-03-06T23:31:37.357Z,99312.59
2023-03-06T23:35:39.524Z,99309.66
2023-03-06T23:39:40.948Z,99306.00
2023-03-06T23:43:42.694Z,99302.94
2023-03-06T23:47:43.988Z,99303.81
2023-03-06T23:51:45.546Z,99289.63
2023-03-06T23:55:49.049Z,99294.88
2023-03-06T23:59:50.426Z,99288.75
